Time;durP1;ratioP1;P1;durP2;ratioP2;P2;SDS_P1;SDS_P2;PMS_P1;PMS_P2;Temp;Humidity;BMP_temperature;BMP_pressure;BME280_temperature;BME280_humidity;BME280_pressure;Samples;Min_cycle;Max_cycle;Signal;HPM_P1;HPM_P2
2023/01/01 00:01:52;;;;;;;10.50;8.50;;;;;;;;;;108160;1262;40179;-37
2023/01/01 00:04:25;;;;;;;9.60;8.60;;;;;;;;;;108169;1263;43727;-37
2023/01/01 00:06:55;;;;;;;9.70;8.40;;;;;;;;;;108191;1272;42675;-37
2023/01/01 00:12:15;;;;;;;9.90;7.60;;;;;;;;;;108245;1262;40574;-37
2023/01/01 00:14:47;;;;;;;9.60;8.00;;;;;;;;;;108119;1263;175686;-37
2023/01/01 00:17:17;;;;;;;10.00;8.60;;;;;;;;;;108012;1271;175364;-37
2023/01/01 00:19:46;;;;;;;10.80;8.20;;;;;;;;;;108156;1263;38308;-37
2023/01/01 00:22:16;;;;;;;10.70;8.40;;;;;;;;;;108169;1273;41128;-37
2023/01/01 00:25:08;;;;;;;10.80;7.90;;;;;;;;;;108182;1271;43842;-37
2023/01/01 00:27:41;;;;;;;9.70;7.50;;;;;;;;;;108321;1263;42737;-37
2023/01/01 00:30:12;;;;;;;;;;;;;;;;;;108285;1272;39076;-37
2023/01/01 00:32:44;;;;;;;8.80;7.10;;;;;;;;;;108312;1272;40661;-37
2023/01/01 00:35:28;;;;;;;9.80;6.80;;;;;;;;;;108233;1267;43652;-37
2023/01/01 00:38:03;;;;;;;8.20;6.80;;;;;;;;;;108182;1271;48538;-37
2023/01/01 00:40:34;;;;;;;7.80;6.30;;;;;;;;;;108172;1275;38969;-37
2023/01/01 00:43:07;;;;;;;8.80;6.80;;;;;;;;;;108162;1261;40635;-37
2023/01/01 00:45:39;;;;;;;9.00;6.60;;;;;;;;;;108152;1263;43820;-37
2023/01/01 00:48:09;;;;;;;8.50;6.90;;;;;;;;;;108283;1262;43811;-37
2023/01/01 00:50:49;;;;;;;7.50;6.30;;;;;;;;;;108248;1261;39148;-37
2023/01/01 00:53:25;;;;;;;8.00;6.20;;;;;;;;;;108222;1270;40446;-37
2023/01/01 00:55:58;;;;;;;8.20;6.30;;;;;;;;;;108196;1272;43715;-37
2023/01/01 00:58:28;;;;;;;8.40;6.50;;;;;;;;;;108155;1264;49691;-37
2023/01/01 01:01:00;;;;;;;7.90;6.30;;;;;;;;;;108160;1262;38016;-37
2023/01/01 01:03:34;;;;;;;8.30;6.40;;;;;;;;;;108121;1261;41721;-37
2023/01/01 01:06:13;;;;;;;8.60;6.30;;;;;;;;;;108143;1267;45070;-37
2023/01/01 01:08:47;;;;;;;8.70;6.40;;;;;;;;;;108172;1269;175678;-37
2023/01/01 01:11:23;;;;;;;;;;;;;;;;;;108269;1270;39263;-37
2023/01/01 01:14:01;;;;;;;8.50;6.20;;;;;;;;;;108264;1270;40158;-37
2023/01/01 01:16:38;;;;;;;7.70;5.90;;;;;;;;;;108157;1258;45092;-37
2023/01/01 01:19:18;;;;;;;9.10;6.30;;;;;;;;;;108129;1271;43787;-38
2023/01/01 01:21:56;;;;;;;9.60;6.30;;;;;;;;;;108140;1268;39247;-37
2023/01/01 01:24:31;;;;;;;7.90;5.80;;;;;;;;;;108123;1263;40538;-37
2023/01/01 01:27:10;;;;;;;9.80;5.70;;;;;;;;;;108062;1263;43984;-37
2023/01/01 01:29:43;;;;;;;9.10;6.30;;;;;;;;;;108198;1263;42665;-37
2023/01/01 01:32:18;;;;;;;9.50;6.20;;;;;;;;;;108202;1271;39214;-37
2023/01/01 01:34:56;;;;;;;7.80;5.80;;;;;;;;;;108195;1263;40532;-37
2023/01/01 01:37:31;;;;;;;8.90;6.20;;;;;;;;;;108150;1270;44977;-37
2023/01/01 01:40:09;;;;;;;9.40;5.70;;;;;;;;;;108125;1267;42594;-37
2023/01/01 01:42:40;;;;;;;7.90;5.80;;;;;;;;;;108171;1269;39211;-37
2023/01/01 01:45:21;;;;;;;10.30;5.70;;;;;;;;;;108136;1271;41763;-37
2023/01/01 01:47:57;;;;;;;9.70;5.50;;;;;;;;;;108113;1258;43854;-37
2023/01/01 01:50:37;;;;;;;9.40;5.70;;;;;;;;;;108181;1263;44948;-37
2023/01/01 01:53:12;;;;;;;7.90;5.60;;;;;;;;;;108220;1270;39103;-37
2023/01/01 01:55:49;;;;;;;9.30;5.50;;;;;;;;;;108228;1270;40678;-37
2023/01/01 01:58:25;;;;;;;8.90;5.60;;;;;;;;;;108140;1271;45012;-37
2023/01/01 02:01:03;;;;;;;8.50;5.90;;;;;;;;;;108132;1263;42506;-37
2023/01/01 02:03:43;;;;;;;8.80;5.30;;;;;;;;;;108130;1273;39287;-37
2023/01/01 02:06:17;;;;;;;8.70;5.20;;;;;;;;;;108133;1262;40683;-37
2023/01/01 02:08:51;;;;;;;8.20;5.10;;;;;;;;;;108121;1263;43733;-37
2023/01/01 02:11:31;;;;;;;9.50;5.50;;;;;;;;;;108252;1263;42610;-37
2023/01/01 02:14:09;;;;;;;7.60;4.90;;;;;;;;;;108179;1273;39935;-37
2023/01/01 02:16:48;;;;;;;8.70;5.50;;;;;;;;;;108154;1265;40704;-37
2023/01/01 02:19:34;;;;;;;7.60;4.80;;;;;;;;;;108062;1262;43551;-37
2023/01/01 02:22:20;;;;;;;7.30;5.00;;;;;;;;;;108070;1273;42546;-37
2023/01/01 02:25:08;;;;;;;7.80;5.10;;;;;;;;;;108100;1263;39175;-37
2023/01/01 02:27:53;;;;;;;6.90;4.90;;;;;;;;;;108013;1264;175722;-37
2023/01/01 02:30:26;;;;;;;8.50;4.90;;;;;;;;;;108138;1260;50370;-37
2023/01/01 02:33:07;;;;;;;8.10;4.90;;;;;;;;;;108193;1270;42660;-37
2023/01/01 02:35:48;;;;;;;8.60;5.10;;;;;;;;;;108243;1270;40470;-37
2023/01/01 02:38:25;;;;;;;7.70;4.80;;;;;;;;;;108171;1261;40453;-37
2023/01/01 02:41:02;;;;;;;9.10;5.20;;;;;;;;;;108127;1270;49615;-37
2023/01/01 02:43:32;;;;;;;7.30;4.80;;;;;;;;;;108133;1270;42680;-37
2023/01/01 02:46:08;;;;;;;8.20;4.70;;;;;;;;;;108135;1263;39403;-37
2023/01/01 02:48:43;;;;;;;8.20;4.50;;;;;;;;;;108084;1271;40843;-37
2023/01/01 02:51:24;;;;;;;7.80;4.50;;;;;;;;;;108228;1273;52146;-37
2023/01/01 02:54:07;;;;;;;9.10;5.00;;;;;;;;;;108182;1272;44119;-37
2023/01/01 02:56:45;;;;;;;7.30;4.50;;;;;;;;;;108214;1270;39266;-37
2023/01/01 03:02:30;;;;;;;8.60;4.50;;;;;;;;;;108006;1259;176068;-37
2023/01/01 03:05:09;;;;;;;6.80;4.30;;;;;;;;;;108123;1270;42884;-37
2023/01/01 03:07:51;;;;;;;7.10;4.40;;;;;;;;;;108172;1264;39180;-37
2023/01/01 03:10:27;;;;;;;6.90;4.60;;;;;;;;;;108135;1257;40792;-37
2023/01/01 03:13:02;;;;;;;7.00;4.30;;;;;;;;;;108205;1257;43772;-37
2023/01/01 03:15:42;;;;;;;7.70;4.40;;;;;;;;;;108209;1270;42674;-37
2023/01/01 03:18:22;;;;;;;6.30;4.20;;;;;;;;;;108254;1270;39430;-37
2023/01/01 03:20:57;;;;;;;7.50;3.90;;;;;;;;;;108066;1257;40976;-38
2023/01/01 03:23:35;;;;;;;6.70;4.10;;;;;;;;;;108102;1262;44232;-37
2023/01/01 03:26:09;;;;;;;6.00;4.30;;;;;;;;;;108131;1266;44078;-37
2023/01/01 03:28:45;;;;;;;5.90;3.70;;;;;;;;;;108018;1263;175724;-37
2023/01/01 03:31:21;;;;;;;5.90;4.00;;;;;;;;;;108134;1261;40385;-37
2023/01/01 03:33:58;;;;;;;6.70;3.90;;;;;;;;;;108199;1261;43718;-37
2023/01/01 03:36:32;;;;;;;6.80;3.80;;;;;;;;;;108209;1260;42696;-37
2023/01/01 03:39:09;;;;;;;7.00;4.10;;;;;;;;;;108180;1270;39453;-37
2023/01/01 03:41:45;;;;;;;6.40;3.90;;;;;;;;;;108109;1264;40511;-38
2023/01/01 03:44:23;;;;;;;6.70;3.50;;;;;;;;;;108107;1263;46266;-40
2023/01/01 03:46:53;;;;;;;7.10;4.00;;;;;;;;;;108071;1264;42761;-40
2023/01/01 03:49:23;;;;;;;7.00;4.10;;;;;;;;;;108092;1264;39208;-37
2023/01/01 03:52:11;;;;;;;8.40;4.00;;;;;;;;;;108007;1263;40521;-37
2023/01/01 03:54:50;;;;;;;6.50;3.80;;;;;;;;;;108263;1263;43735;-38
2023/01/01 03:57:39;;;;;;;6.60;3.90;;;;;;;;;;108195;1260;42695;-39
2023/01/01 04:00:15;;;;;;;5.50;3.70;;;;;;;;;;108124;1272;39296;-39
2023/01/01 04:02:52;;;;;;;5.70;3.70;;;;;;;;;;108141;1265;48769;-40
2023/01/01 04:05:23;;;;;;;7.10;4.00;;;;;;;;;;108117;1273;44786;-39
2023/01/01 04:07:54;;;;;;;6.30;3.90;;;;;;;;;;108156;1273;42532;-39
2023/01/01 04:10:25;;;;;;;7.00;3.90;;;;;;;;;;108190;1263;39091;-38
2023/01/01 04:12:57;;;;;;;6.20;4.10;;;;;;;;;;108237;1261;42729;-38
2023/01/01 04:15:28;;;;;;;7.40;3.90;;;;;;;;;;108208;1269;43752;-38
2023/01/01 04:17:57;;;;;;;6.80;3.80;;;;;;;;;;108234;1264;42316;-39
2023/01/01 04:20:27;;;;;;;7.60;4.20;;;;;;;;;;108207;1260;38083;-39
2023/01/01 04:22:58;;;;;;;7.10;4.00;;;;;;;;;;108115;1273;47183;-39
2023/01/01 04:25:29;;;;;;;6.70;4.60;;;;;;;;;;108165;1257;43665;-40
2023/01/01 04:28:02;;;;;;;9.50;4.10;;;;;;;;;;108127;1258;42565;-39
2023/01/01 04:30:34;;;;;;;8.40;4.10;;;;;;;;;;108128;1260;38934;-37
2023/01/01 04:33:04;;;;;;;7.70;4.50;;;;;;;;;;108022;1261;175847;-37
2023/01/01 04:35:34;;;;;;;7.00;4.30;;;;;;;;;;108174;1257;43902;-37
2023/01/01 04:38:05;;;;;;;7.30;4.00;;;;;;;;;;108190;1260;42062;-38
2023/01/01 04:40:34;;;;;;;6.40;4.10;;;;;;;;;;108248;1264;38969;-39
2023/01/01 04:43:04;;;;;;;6.90;4.30;;;;;;;;;;108147;1264;40112;-38
2023/01/01 04:45:34;;;;;;;5.50;3.60;;;;;;;;;;108151;1267;44628;-38
2023/01/01 04:48:06;;;;;;;6.60;4.10;;;;;;;;;;108111;1262;42195;-39
2023/01/01 04:50:36;;;;;;;6.20;3.70;;;;;;;;;;108153;1267;39089;-39
2023/01/01 04:53:06;;;;;;;7.00;3.90;;;;;;;;;;108176;1261;41404;-38
2023/01/01 04:55:38;;;;;;;5.70;3.50;;;;;;;;;;108286;1261;43303;-39
2023/01/01 04:58:08;;;;;;;6.90;3.50;;;;;;;;;;108146;1271;175386;-38
2023/01/01 05:00:40;;;;;;;5.50;3.50;;;;;;;;;;108251;1260;39328;-38
2023/01/01 05:03:15;;;;;;;6.00;3.70;;;;;;;;;;108129;1264;40712;-38
2023/01/01 05:05:49;;;;;;;6.40;3.70;;;;;;;;;;108084;1264;43607;-39
2023/01/01 05:08:26;;;;;;;6.20;3.80;;;;;;;;;;108083;1262;42527;-39
2023/01/01 05:11:02;;;;;;;6.10;3.60;;;;;;;;;;108063;1264;192460;-38
2023/01/01 05:13:34;;;;;;;6.20;3.50;;;;;;;;;;108213;1260;40353;-38
2023/01/01 05:16:06;;;;;;;6.50;3.70;;;;;;;;;;108253;1260;43597;-38
2023/01/01 05:18:37;;;;;;;5.50;3.60;;;;;;;;;;108319;1257;42353;-38
2023/01/01 05:21:15;;;;;;;6.20;3.30;;;;;;;;;;108256;1264;39276;-38
2023/01/01 05:23:48;;;;;;;7.30;3.50;;;;;;;;;;107829;1263;541386;-39
2023/01/01 05:26:22;;;;;;;6.20;4.00;;;;;;;;;;108180;1270;43872;-38
2023/01/01 05:28:52;;;;;;;5.30;3.60;;;;;;;;;;108221;1271;42519;-39
2023/01/01 05:31:26;;;;;;;6.10;3.60;;;;;;;;;;108158;1262;39384;-39
2023/01/01 05:33:59;;;;;;;5.20;3.10;;;;;;;;;;108221;1260;41922;-38
2023/01/01 05:36:32;;;;;;;5.60;3.80;;;;;;;;;;108264;1265;43603;-38
2023/01/01 05:39:03;;;;;;;8.50;4.00;;;;;;;;;;108280;1272;44011;-38
2023/01/01 05:41:35;;;;;;;5.00;3.30;;;;;;;;;;108180;1260;39084;-38
2023/01/01 05:44:10;;;;;;;5.60;3.20;;;;;;;;;;108095;1263;40552;-38
2023/01/01 05:46:41;;;;;;;5.60;3.50;;;;;;;;;;108262;1263;43578;-38
2023/01/01 05:49:13;;;;;;;6.00;3.40;;;;;;;;;;108134;1260;175656;-38
2023/01/01 05:51:42;;;;;;;7.00;3.60;;;;;;;;;;108153;1266;39125;-38
2023/01/01 05:54:15;;;;;;;5.30;3.30;;;;;;;;;;108096;1260;40637;-38
2023/01/01 05:56:49;;;;;;;5.60;3.10;;;;;;;;;;108251;1271;43398;-38
2023/01/01 05:59:26;;;;;;;7.60;3.40;;;;;;;;;;108195;1260;42633;-38
2023/01/01 06:02:04;;;;;;;6.20;3.20;;;;;;;;;;108151;1261;39290;-38
2023/01/01 06:04:39;;;;;;;5.90;3.40;;;;;;;;;;108039;1258;40192;-38
2023/01/01 06:07:11;;;;;;;6.10;3.00;;;;;;;;;;108047;1263;43777;-38
2023/01/01 06:09:49;;;;;;;4.50;2.90;;;;;;;;;;108051;1273;42138;-38
2023/01/01 06:12:21;;;;;;;6.40;3.50;;;;;;;;;;108104;1273;39256;-38
2023/01/01 06:14:58;;;;;;;5.40;3.10;;;;;;;;;;108147;1261;40656;-38
2023/01/01 06:17:33;;;;;;;6.20;3.20;;;;;;;;;;108131;1272;43606;-38
2023/01/01 06:20:08;;;;;;;5.10;2.80;;;;;;;;;;108138;1260;42685;-39
2023/01/01 06:22:41;;;;;;;6.40;3.30;;;;;;;;;;108170;1270;39107;-38
2023/01/01 06:25:18;;;;;;;5.50;3.00;;;;;;;;;;108055;1264;40654;-39
2023/01/01 06:27:58;;;;;;;5.80;3.00;;;;;;;;;;108102;1273;43368;-38
2023/01/01 06:30:36;;;;;;;7.70;3.40;;;;;;;;;;108060;1273;42479;-38
2023/01/01 06:33:11;;;;;;;5.70;3.50;;;;;;;;;;108133;1267;39344;-39
2023/01/01 06:35:43;;;;;;;5.40;3.30;;;;;;;;;;108098;1261;46120;-38
2023/01/01 06:38:22;;;;;;;5.60;3.40;;;;;;;;;;108136;1261;43217;-39
2023/01/01 06:41:00;;;;;;;5.20;3.20;;;;;;;;;;108091;1272;42777;-39
2023/01/01 06:43:35;;;;;;;5.10;3.10;;;;;;;;;;108140;1269;39235;-39
2023/01/01 06:46:17;;;;;;;6.00;3.20;;;;;;;;;;108065;1262;41671;-38
2023/01/01 06:48:52;;;;;;;5.60;3.10;;;;;;;;;;108100;1265;43619;-39
2023/01/01 06:51:27;;;;;;;7.70;3.60;;;;;;;;;;108063;1270;42791;-38
2023/01/01 06:54:04;;;;;;;4.90;3.30;;;;;;;;;;108024;1257;39090;-39
2023/01/01 06:56:34;;;;;;;6.80;3.20;;;;;;;;;;108124;1260;40724;-39
2023/01/01 06:59:08;;;;;;;5.10;3.20;;;;;;;;;;108169;1264;43694;-38
2023/01/01 07:01:39;;;;;;;6.20;2.90;;;;;;;;;;108140;1256;42811;-39
2023/01/01 07:04:16;;;;;;;5.10;3.20;;;;;;;;;;108145;1257;39301;-38
2023/01/01 07:06:49;;;;;;;6.50;3.20;;;;;;;;;;108065;1266;40541;-38
2023/01/01 07:09:21;;;;;;;5.20;3.10;;;;;;;;;;108071;1270;44962;-38
2023/01/01 07:11:53;;;;;;;5.20;3.00;;;;;;;;;;108117;1262;42438;-38
2023/01/01 07:14:26;;;;;;;7.30;3.70;;;;;;;;;;108105;1257;40591;-38
2023/01/01 07:16:55;;;;;;;9.30;5.20;;;;;;;;;;108171;1269;40797;-40
2023/01/01 07:19:25;;;;;;;6.80;3.00;;;;;;;;;;108162;1271;43482;-38
2023/01/01 07:21:58;;;;;;;7.30;3.60;;;;;;;;;;108100;1262;42740;-38
2023/01/01 07:24:35;;;;;;;6.20;3.30;;;;;;;;;;108087;1260;39063;-38
2023/01/01 07:27:07;;;;;;;7.70;3.50;;;;;;;;;;108002;1272;47802;-38
2023/01/01 07:29:37;;;;;;;8.90;3.70;;;;;;;;;;108108;1270;43579;-38
2023/01/01 07:32:13;;;;;;;6.50;3.40;;;;;;;;;;108096;1262;42489;-38
2023/01/01 07:34:43;;;;;;;6.20;3.20;;;;;;;;;;108173;1258;39353;-38
2023/01/01 07:37:24;;;;;;;5.90;3.40;;;;;;;;;;108140;1269;47577;-38
2023/01/01 07:39:56;;;;;;;8.70;3.70;;;;;;;;;;108167;1260;45879;-38
2023/01/01 07:42:26;;;;;;;8.50;3.80;;;;;;;;;;108164;1270;42764;-39
2023/01/01 07:44:55;;;;;;;6.70;3.60;;;;;;;;;;108165;1260;38110;-37
2023/01/01 07:47:26;;;;;;;6.70;3.70;;;;;;;;;;108120;1262;39947;-38
2023/01/01 07:49:56;;;;;;;6.70;3.50;;;;;;;;;;108075;1258;175705;-38
2023/01/01 07:52:26;;;;;;;6.20;3.40;;;;;;;;;;108120;1269;42274;-38
2023/01/01 07:54:58;;;;;;;8.90;3.60;;;;;;;;;;108144;1257;40464;-38
2023/01/01 07:57:33;;;;;;;6.20;3.50;;;;;;;;;;108080;1260;40438;-38
2023/01/01 08:00:09;;;;;;;5.00;3.00;;;;;;;;;;108091;1270;43602;-38
2023/01/01 08:02:44;;;;;;;6.80;3.40;;;;;;;;;;108165;1260;42549;-37
2023/01/01 08:05:17;;;;;;;7.00;3.10;;;;;;;;;;108170;1272;39078;-36
2023/01/01 08:07:58;;;;;;;7.00;3.50;;;;;;;;;;107963;1261;175679;-37
2023/01/01 08:10:28;;;;;;;6.20;3.40;;;;;;;;;;108163;1273;43333;-38
2023/01/01 08:13:01;;;;;;;5.50;3.50;;;;;;;;;;108111;1262;42553;-38
2023/01/01 08:15:34;;;;;;;5.90;3.50;;;;;;;;;;108182;1262;39250;-37
2023/01/01 08:18:06;;;;;;;5.80;3.30;;;;;;;;;;108236;1260;40646;-36
2023/01/01 08:20:38;;;;;;;6.30;3.70;;;;;;;;;;108213;1257;43742;-36
2023/01/01 08:23:14;;;;;;;7.30;3.40;;;;;;;;;;108137;1265;42490;-36
2023/01/01 08:25:51;;;;;;;6.30;3.50;;;;;;;;;;108102;1269;39248;-36
2023/01/01 08:28:26;;;;;;;5.70;3.40;;;;;;;;;;108049;1262;46348;-36
2023/01/01 08:30:59;;;;;;;7.10;3.00;;;;;;;;;;108106;1270;43693;-36
2023/01/01 08:33:32;;;;;;;7.40;3.50;;;;;;;;;;108103;1262;42676;-36
2023/01/01 08:36:08;;;;;;;6.50;3.50;;;;;;;;;;108021;1270;175640;-36
2023/01/01 08:38:37;;;;;;;6.30;3.50;;;;;;;;;;108332;1260;46169;-38
2023/01/01 08:41:10;;;;;;;5.30;3.20;;;;;;;;;;108221;1262;43720;-37
2023/01/01 08:43:45;;;;;;;6.50;3.70;;;;;;;;;;108139;1262;43149;-36
2023/01/01 08:46:21;;;;;;;5.90;3.80;;;;;;;;;;108195;1265;39132;-36
2023/01/01 08:48:54;;;;;;;7.70;4.50;;;;;;;;;;108079;1262;47297;-36
2023/01/01 08:51:27;;;;;;;5.40;3.30;;;;;;;;;;108096;1271;43632;-36
2023/01/01 08:54:01;;;;;;;5.90;3.50;;;;;;;;;;108098;1272;43836;-38
2023/01/01 08:56:36;;;;;;;6.70;3.30;;;;;;;;;;108113;1257;40472;-38
2023/01/01 08:59:06;;;;;;;6.70;3.50;;;;;;;;;;108136;1260;46230;-38
2023/01/01 09:01:38;;;;;;;6.20;3.30;;;;;;;;;;108152;1260;43749;-38
2023/01/01 09:04:12;;;;;;;6.70;3.60;;;;;;;;;;108113;1260;42660;-39
2023/01/01 09:06:45;;;;;;;7.30;3.80;;;;;;;;;;108155;1260;39093;-38
2023/01/01 09:09:21;;;;;;;7.90;3.70;;;;;;;;;;108058;1259;40131;-36
2023/01/01 09:12:07;;;;;;;6.50;2.80;;;;;;;;;;108106;1259;43898;-36
2023/01/01 09:14:37;;;;;;;5.50;3.20;;;;;;;;;;108142;1262;42666;-36
2023/01/01 09:17:09;;;;;;;7.20;3.20;;;;;;;;;;108113;1262;39133;-37
2023/01/01 09:19:42;;;;;;;7.80;3.70;;;;;;;;;;108163;1262;40503;-36
2023/01/01 09:22:21;;;;;;;6.80;3.40;;;;;;;;;;108171;1260;43767;-36
2023/01/01 09:24:53;;;;;;;7.70;3.70;;;;;;;;;;108126;1257;42847;-36
2023/01/01 09:27:29;;;;;;;8.50;3.50;;;;;;;;;;108145;1265;39124;-36
2023/01/01 09:29:59;;;;;;;6.90;3.50;;;;;;;;;;108068;1272;46523;-36
2023/01/01 09:32:32;;;;;;;8.20;4.00;;;;;;;;;;108107;1259;43589;-36
2023/01/01 09:35:02;;;;;;;7.20;3.30;;;;;;;;;;108110;1259;42893;-36
2023/01/01 09:37:34;;;;;;;6.60;3.30;;;;;;;;;;108152;1269;39121;-36
2023/01/01 09:40:06;;;;;;;7.20;3.10;;;;;;;;;;108116;1270;47253;-37
2023/01/01 09:42:46;;;;;;;5.60;3.00;;;;;;;;;;108191;1260;43604;-37
2023/01/01 09:45:29;;;;;;;6.60;3.20;;;;;;;;;;108183;1257;42504;-38
2023/01/01 09:48:06;;;;;;;7.60;3.40;;;;;;;;;;107975;1260;175676;-37
2023/01/01 09:50:42;;;;;;;5.80;3.20;;;;;;;;;;108107;1270;48053;-38
2023/01/01 09:53:22;;;;;;;5.70;3.30;;;;;;;;;;108184;1263;43960;-37
2023/01/01 09:56:01;;;;;;;8.00;3.30;;;;;;;;;;108188;1269;42593;-37
2023/01/01 09:58:35;;;;;;;6.70;3.20;;;;;;;;;;108149;1257;39391;-38
2023/01/01 10:01:25;;;;;;;6.30;3.30;;;;;;;;;;108170;1260;40331;-37
2023/01/01 10:04:03;;;;;;;7.70;3.30;;;;;;;;;;108028;1262;45013;-38
2023/01/01 10:06:39;;;;;;;7.60;3.10;;;;;;;;;;108182;1271;42333;-38
2023/01/01 10:09:21;;;;;;;5.70;3.10;;;;;;;;;;108146;1260;39184;-38
2023/01/01 10:12:05;;;;;;;6.70;2.80;;;;;;;;;;108179;1263;40521;-37
2023/01/01 10:14:46;;;;;;;7.00;2.70;;;;;;;;;;108090;1273;43574;-38
2023/01/01 10:17:29;;;;;;;6.30;3.30;;;;;;;;;;107914;1264;43986;-38
2023/01/01 10:20:06;;;;;;;6.30;2.90;;;;;;;;;;107997;1262;38940;-38
2023/01/01 10:22:43;;;;;;;5.40;2.90;;;;;;;;;;108187;1269;40495;-38
2023/01/01 10:25:20;;;;;;;6.30;3.20;;;;;;;;;;108154;1265;43770;-38
2023/01/01 10:27:59;;;;;;;6.80;3.40;;;;;;;;;;108133;1269;42471;-39
2023/01/01 10:30:32;;;;;;;7.80;3.60;;;;;;;;;;108097;1262;39223;-38
2023/01/01 10:33:17;;;;;;;6.60;2.90;;;;;;;;;;108065;1262;40501;-37
2023/01/01 10:35:55;;;;;;;7.00;3.10;;;;;;;;;;108096;1262;43729;-38
2023/01/01 10:38:38;;;;;;;7.00;3.20;;;;;;;;;;108043;1262;42400;-38
2023/01/01 10:41:11;;;;;;;6.60;3.10;;;;;;;;;;108064;1260;39323;-37
2023/01/01 10:43:56;;;;;;;7.80;3.10;;;;;;;;;;108143;1260;40492;-38
2023/01/01 10:46:29;;;;;;;6.60;3.30;;;;;;;;;;108116;1261;43635;-38
2023/01/01 10:49:10;;;;;;;6.40;3.40;;;;;;;;;;108137;1270;43840;-38
2023/01/01 10:51:47;;;;;;;7.90;2.90;;;;;;;;;;108041;1262;45709;-38
2023/01/01 10:54:34;;;;;;;6.80;3.10;;;;;;;;;;108174;1259;41770;-38
2023/01/01 10:57:17;;;;;;;6.60;3.10;;;;;;;;;;108160;1262;43406;-38
2023/01/01 10:59:47;;;;;;;5.80;2.80;;;;;;;;;;108153;1256;42535;-39
2023/01/01 11:02:26;;;;;;;6.10;3.20;;;;;;;;;;108271;1261;39234;-38
2023/01/01 11:05:17;;;;;;;5.30;2.90;;;;;;;;;;108304;1269;40617;-38
2023/01/01 11:07:54;;;;;;;6.80;3.50;;;;;;;;;;108264;1257;43609;-38
2023/01/01 11:10:28;;;;;;;6.80;3.20;;;;;;;;;;108183;1262;42403;-38
2023/01/01 11:13:03;;;;;;;8.00;3.10;;;;;;;;;;108217;1257;39007;-38
2023/01/01 11:15:40;;;;;;;5.20;2.60;;;;;;;;;;108211;1262;40212;-38
2023/01/01 11:18:16;;;;;;;5.40;2.90;;;;;;;;;;108187;1257;43858;-38
2023/01/01 11:20:53;;;;;;;7.20;3.10;;;;;;;;;;108147;1269;42576;-38
2023/01/01 11:23:32;;;;;;;6.00;3.00;;;;;;;;;;108269;1260;39743;-38
2023/01/01 11:26:25;;;;;;;7.00;2.80;;;;;;;;;;108221;1265;40528;-38
2023/01/01 11:29:04;;;;;;;6.40;3.30;;;;;;;;;;108276;1266;43788;-38
2023/01/01 11:31:39;;;;;;;6.50;2.80;;;;;;;;;;108241;1261;43090;-39
2023/01/01 11:34:29;;;;;;;7.10;3.30;;;;;;;;;;108225;1265;39285;-37
2023/01/01 11:37:25;;;;;;;6.30;3.00;;;;;;;;;;108073;1272;40570;-38
2023/01/01 11:40:03;;;;;;;5.80;2.90;;;;;;;;;;108083;1263;175651;-39
2023/01/01 11:42:39;;;;;;;5.80;2.60;;;;;;;;;;108185;1260;42372;-39
2023/01/01 11:45:22;;;;;;;7.70;2.80;;;;;;;;;;108273;1269;39311;-38
2023/01/01 11:48:00;;;;;;;6.50;2.60;;;;;;;;;;108182;1257;40671;-38
2023/01/01 11:50:33;;;;;;;5.70;2.50;;;;;;;;;;108237;1259;43682;-39
2023/01/01 11:53:27;;;;;;;5.30;2.40;;;;;;;;;;108170;1262;42516;-38
2023/01/01 11:56:09;;;;;;;5.80;2.60;;;;;;;;;;108178;1268;39256;-38
2023/01/01 11:58:54;;;;;;;6.40;2.70;;;;;;;;;;108133;1261;41007;-40
2023/01/01 12:01:36;;;;;;;7.00;3.20;;;;;;;;;;108119;1260;43682;-39
2023/01/01 12:04:13;;;;;;;6.40;2.90;;;;;;;;;;108180;1271;43987;-39
2023/01/01 12:06:49;;;;;;;6.10;2.60;;;;;;;;;;108197;1257;39229;-40
2023/01/01 12:09:26;;;;;;;6.60;2.70;;;;;;;;;;108102;1261;193738;-39
2023/01/01 12:12:04;;;;;;;5.50;2.50;;;;;;;;;;108201;1261;44930;-37
2023/01/01 12:14:42;;;;;;;5.50;2.60;;;;;;;;;;108223;1262;42546;-36
2023/01/01 12:17:22;;;;;;;6.70;2.60;;;;;;;;;;108192;1261;39145;-36
2023/01/01 12:20:03;;;;;;;6.60;2.50;;;;;;;;;;108180;1262;40483;-36
2023/01/01 12:22:33;;;;;;;6.70;2.80;;;;;;;;;;108126;1260;44984;-36
2023/01/01 12:25:09;;;;;;;5.30;2.80;;;;;;;;;;108186;1259;42297;-36
2023/01/01 12:27:54;;;;;;;6.40;2.70;;;;;;;;;;108225;1269;39280;-36
2023/01/01 12:30:28;;;;;;;5.10;2.10;;;;;;;;;;108213;1260;40629;-36
2023/01/01 12:33:22;;;;;;;6.70;2.70;;;;;;;;;;108147;1262;43589;-36
2023/01/01 12:36:20;;;;;;;5.00;2.40;;;;;;;;;;108133;1258;42531;-36
2023/01/01 12:40:00;;;;;;;5.40;2.30;;;;;;;;;;108111;1261;41330;-36
2023/01/01 12:42:47;;;;;;;4.70;2.70;;;;;;;;;;108121;1261;40539;-36
2023/01/01 12:45:41;;;;;;;6.90;2.80;;;;;;;;;;108032;1269;43863;-37
2023/01/01 12:48:23;;;;;;;;;;;;;;;;;;108263;1257;42567;-36
2023/01/01 12:51:02;;;;;;;5.40;2.40;;;;;;;;;;108221;1272;40420;-36
2023/01/01 12:53:49;;;;;;;6.80;2.60;;;;;;;;;;108143;1274;40220;-37
2023/01/01 12:56:30;;;;;;;6.10;2.60;;;;;;;;;;108138;1262;43644;-38
2023/01/01 12:59:07;;;;;;;4.80;2.40;;;;;;;;;;108137;1272;43864;-38
2023/01/01 13:01:39;;;;;;;5.50;2.60;;;;;;;;;;108152;1263;39237;-38
2023/01/01 13:04:13;;;;;;;5.90;2.40;;;;;;;;;;108206;1264;40626;-38
2023/01/01 13:06:48;;;;;;;5.70;2.50;;;;;;;;;;108220;1264;43688;-40
2023/01/01 13:09:22;;;;;;;4.70;2.40;;;;;;;;;;108217;1265;43370;-39
2023/01/01 13:11:59;;;;;;;6.20;2.40;;;;;;;;;;108083;1261;175702;-38
2023/01/01 13:14:29;;;;;;;4.70;2.70;;;;;;;;;;108085;1262;40643;-39
2023/01/01 13:16:59;;;;;;;4.30;2.40;;;;;;;;;;108098;1262;43439;-39
2023/01/01 13:19:34;;;;;;;4.80;2.20;;;;;;;;;;108136;1272;42520;-39
2023/01/01 13:22:40;;;;;;;5.00;2.20;;;;;;;;;;108141;1257;40638;-38
2023/01/01 13:25:24;;;;;;;6.50;2.40;;;;;;;;;;108063;1262;45869;-39
2023/01/01 13:28:14;;;;;;;6.40;2.80;;;;;;;;;;108115;1269;45235;-40
2023/01/01 13:30:54;;;;;;;4.80;2.60;;;;;;;;;;108018;1259;175656;-38
2023/01/01 13:33:29;;;;;;;5.00;2.10;;;;;;;;;;108108;1262;39297;-39
2023/01/01 13:36:37;;;;;;;6.70;2.60;;;;;;;;;;108212;1262;40493;-39
2023/01/01 13:39:09;;;;;;;5.40;2.20;;;;;;;;;;108204;1262;43653;-39
2023/01/01 13:41:44;;;;;;;6.00;2.50;;;;;;;;;;108226;1269;42483;-39
2023/01/01 13:44:21;;;;;;;4.80;2.20;;;;;;;;;;108154;1262;39178;-39
2023/01/01 13:47:26;;;;;;;5.90;2.50;;;;;;;;;;108123;1272;40436;-38
2023/01/01 13:50:13;;;;;;;4.80;2.30;;;;;;;;;;108127;1260;43732;-38
2023/01/01 13:53:36;;;;;;;5.00;2.50;;;;;;;;;;108124;1272;43777;-38
2023/01/01 13:56:36;;;;;;;4.80;2.30;;;;;;;;;;108302;1262;45012;-38
2023/01/01 13:59:49;;;;;;;5.80;2.40;;;;;;;;;;108195;1261;40481;-38
2023/01/01 14:02:27;;;;;;;5.20;2.10;;;;;;;;;;108241;1261;43452;-38
2023/01/01 14:05:13;;;;;;;5.50;2.60;;;;;;;;;;108148;1269;43606;-38
2023/01/01 14:07:49;;;;;;;5.20;2.50;;;;;;;;;;107973;1263;39223;-38
2023/01/01 14:10:27;;;;;;;5.60;2.40;;;;;;;;;;108008;1273;194065;-38
2023/01/01 14:13:15;;;;;;;5.20;2.50;;;;;;;;;;108163;1273;43525;-38
2023/01/01 14:15:53;;;;;;;5.90;2.50;;;;;;;;;;108160;1260;42543;-38
2023/01/01 14:18:32;;;;;;;5.50;2.30;;;;;;;;;;108223;1269;40376;-39
2023/01/01 14:21:03;;;;;;;5.20;2.40;;;;;;;;;;108222;1261;40498;-38
2023/01/01 14:23:41;;;;;;;5.00;2.40;;;;;;;;;;108219;1270;43685;-40
2023/01/01 14:26:17;;;;;;;5.40;2.50;;;;;;;;;;108097;1264;42706;-38
2023/01/01 14:28:49;;;;;;;6.70;3.10;;;;;;;;;;108134;1262;39086;-38
2023/01/01 14:31:23;;;;;;;5.40;2.40;;;;;;;;;;108168;1268;40481;-38
2023/01/01 14:33:53;;;;;;;5.70;2.70;;;;;;;;;;108167;1262;43618;-38
2023/01/01 14:36:27;;;;;;;5.20;2.30;;;;;;;;;;108186;1260;42113;-38
2023/01/01 14:38:59;;;;;;;4.90;2.50;;;;;;;;;;108112;1273;192541;-38
2023/01/01 14:41:34;;;;;;;5.00;2.60;;;;;;;;;;108222;1270;40706;-37
2023/01/01 14:44:12;;;;;;;6.20;2.60;;;;;;;;;;108221;1262;43750;-38
2023/01/01 14:46:50;;;;;;;5.50;2.50;;;;;;;;;;108138;1262;42584;-38
2023/01/01 14:49:24;;;;;;;5.40;2.70;;;;;;;;;;108144;1272;39360;-39
2023/01/01 14:51:59;;;;;;;5.90;2.90;;;;;;;;;;108147;1262;40636;-38
2023/01/01 14:54:36;;;;;;;6.20;3.30;;;;;;;;;;108155;1263;43716;-38
2023/01/01 14:57:14;;;;;;;5.50;2.70;;;;;;;;;;108194;1262;43699;-38
2023/01/01 14:59:53;;;;;;;4.90;3.00;;;;;;;;;;108222;1262;39114;-38
2023/01/01 15:02:29;;;;;;;6.20;3.10;;;;;;;;;;108114;1264;175715;-38
2023/01/01 15:05:17;;;;;;;7.50;3.20;;;;;;;;;;108265;1263;44816;-39
2023/01/01 15:07:58;;;;;;;7.40;3.10;;;;;;;;;;108089;1262;49533;-39
2023/01/01 15:10:30;;;;;;;7.20;3.10;;;;;;;;;;108156;1267;39149;-39
2023/01/01 15:13:00;;;;;;;5.30;2.70;;;;;;;;;;108113;1262;40553;-38
2023/01/01 15:15:47;;;;;;;5.40;2.80;;;;;;;;;;108130;1273;43417;-39
2023/01/01 15:18:44;;;;;;;6.60;2.80;;;;;;;;;;108159;1263;48296;-39
2023/01/01 15:21:23;;;;;;;5.70;3.00;;;;;;;;;;108192;1257;39094;-38
2023/01/01 15:23:58;;;;;;;5.80;2.80;;;;;;;;;;108271;1262;42331;-37
2023/01/01 15:26:30;;;;;;;5.90;3.00;;;;;;;;;;108216;1260;43594;-38
2023/01/01 15:29:01;;;;;;;4.90;2.70;;;;;;;;;;108212;1262;43631;-37
2023/01/01 15:31:41;;;;;;;5.90;2.60;;;;;;;;;;108134;1272;39149;-36
2023/01/01 15:34:23;;;;;;;6.80;3.10;;;;;;;;;;108129;1262;40410;-36